Time;durP1;ratioP1;P1;durP2;ratioP2;P2;SDS_P1;SDS_P2;PMS_P1;PMS_P2;Temp;Humidity;BMP_temperature;BMP_pressure;BME280_temperature;BME280_humidity;BME280_pressure;Samples;Min_cycle;Max_cycle;Signal;HPM_P1;HPM_P2
2022/01/22 00:00:13;;;;;;;6.80;4.38;;;1.90;98.90;;;;;;5018797;28;20041;-50
2022/01/22 00:02:40;;;;;;;7.22;3.90;;;;;;;;;;5018994;28;20044;-49
2022/01/22 00:05:07;;;;;;;10.68;4.75;;;;;;;;;;5053509;28;20072;-50
2022/01/22 00:07:33;;;;;;;8.65;3.83;;;;;;;;;;5018145;28;20477;-49
2022/01/22 00:10:04;;;;;;;7.90;4.15;;;;;;;;;;5018492;28;20055;-50
2022/01/22 00:15:07;;;;;;;7.32;3.70;;;;;;;;;;5053321;28;20078;-50
2022/01/22 00:17:33;;;;;;;7.50;3.70;;;;;;;;;;5053157;28;20028;-49
2022/01/22 00:19:59;;;;;;;8.35;4.72;;;1.80;99.70;;;;;;5053270;28;20123;-49
2022/01/22 00:22:28;;;;;;;6.20;3.10;;;2.00;99.90;;;;;;5056198;28;20051;-49
2022/01/22 00:24:58;;;;;;;8.23;4.22;;;2.10;99.90;;;;;;5006153;28;20051;-50
2022/01/22 00:27:25;;;;;;;7.20;4.10;;;2.10;99.90;;;;;;5053157;28;20087;-49
2022/01/22 00:29:50;;;;;;;6.22;2.70;;;2.10;99.90;;;;;;5018174;28;20122;-48
2022/01/22 00:32:16;;;;;;;5.70;3.10;;;2.00;99.90;;;;;;5053010;28;20033;-49
2022/01/22 00:34:42;;;;;;;4.90;2.65;;;2.10;99.90;;;;;;5018197;28;20083;-50
2022/01/22 00:37:08;;;;;;;5.03;2.30;;;2.00;99.90;;;;;;5018346;28;20449;-49
2022/01/22 00:39:35;;;;;;;7.53;2.60;;;2.00;99.90;;;;;;5052945;28;20025;-49
2022/01/22 00:42:09;;;;;;;5.25;2.40;;;2.10;99.90;;;;;;5053049;28;20029;-49
2022/01/22 00:44:34;;;;;;;4.30;2.22;;;2.10;99.90;;;;;;5003774;28;20076;-50
2022/01/22 00:47:02;;;;;;;10.27;1.98;;;2.00;99.90;;;;;;5052848;28;20057;-49
2022/01/22 00:49:29;;;;;;;5.57;2.83;;;2.00;99.90;;;;;;5053046;28;20066;-49
2022/01/22 00:51:55;;;;;;;5.20;2.33;;;2.00;99.90;;;;;;5052841;28;20024;-50
2022/01/22 00:54:21;;;;;;;5.80;2.63;;;1.90;99.90;;;;;;5052911;28;20078;-50
2022/01/22 00:56:46;;;;;;;4.07;2.28;;;2.00;99.90;;;;;;5001175;28;20127;-49
2022/01/22 00:59:12;;;;;;;5.38;3.15;;;1.90;99.90;;;;;;5034409;28;20030;-49
2022/01/22 01:01:38;;;;;;;4.10;2.25;;;2.00;99.90;;;;;;5052817;28;20457;-49
2022/01/22 01:04:04;;;;;;;5.70;3.25;;;1.90;99.90;;;;;;5052874;28;20054;-50
2022/01/22 01:06:30;;;;;;;7.40;3.25;;;2.00;99.90;;;;;;5053111;28;20380;-49
2022/01/22 01:08:56;;;;;;;6.82;2.50;;;2.00;99.90;;;;;;5052673;28;20029;-49
2022/01/22 01:11:25;;;;;;;5.40;2.28;;;2.00;99.90;;;;;;5018040;28;20039;-50
2022/01/22 01:13:56;;;;;;;7.07;3.22;;;2.00;99.90;;;;;;5018868;28;20033;-48
2022/01/22 01:33:15;;;;;;;7.88;2.65;;;2.00;99.90;;;;;;4999149;28;20044;-49
2022/01/22 01:35:41;;;;;;;6.60;3.60;;;2.00;99.90;;;;;;5042389;28;20494;-48
2022/01/22 01:38:08;;;;;;;7.43;3.53;;;1.90;99.90;;;;;;5055968;28;20071;-49
2022/01/22 01:40:38;;;;;;;6.97;3.90;;;1.90;99.90;;;;;;5056098;28;20033;-49
2022/01/22 01:43:20;;;;;;;8.68;4.30;;;1.90;99.90;;;;;;5056012;28;20037;-49
2022/01/22 01:45:46;;;;;;;5.88;3.67;;;2.00;99.90;;;;;;5056076;28;20032;-49
2022/01/22 01:48:17;;;;;;;8.77;3.55;;;1.90;99.90;;;;;;5037110;28;20057;-49
2022/01/22 01:50:44;;;;;;;6.03;3.88;;;1.90;99.90;;;;;;5020755;28;20052;-49
2022/01/22 01:53:31;;;;;;;8.57;4.03;;;1.90;99.90;;;;;;5055987;28;20103;-49
2022/01/22 01:58:28;;;;;;;7.07;3.78;;;1.90;99.90;;;;;;5055809;28;20028;-50
2022/01/22 02:00:54;;;;;;;9.02;3.97;;;1.90;99.90;;;;;;5055573;28;20029;-49
2022/01/22 02:03:20;;;;;;;7.40;3.97;;;1.80;99.90;;;;;;5020957;28;20032;-50
2022/01/22 02:05:46;;;;;;;7.20;4.10;;;1.80;99.90;;;;;;5055665;28;20040;-50
2022/01/22 02:08:14;;;;;;;10.23;3.53;;;1.80;99.90;;;;;;4987870;28;20400;-50
2022/01/22 02:10:46;;;;;;;5.65;3.67;;;1.80;99.90;;;;;;5055561;28;20036;-50
2022/01/22 02:24:13;;;;;;;8.93;4.45;;;1.60;99.90;;;;;;5026137;28;20108;-50
2022/01/22 02:26:48;;;;;;;8.07;4.78;;;1.60;99.90;;;;;;5033032;28;20072;-49
2022/01/22 02:29:14;;;;;;;7.28;3.80;;;1.60;99.90;;;;;;5032559;28;20174;-50
2022/01/22 02:31:47;;;;;;;8.50;4.65;;;1.60;99.90;;;;;;5016595;28;20096;-49
2022/01/22 02:34:23;;;;;;;8.43;4.38;;;1.60;99.90;;;;;;5033129;28;20164;-50
2022/01/22 02:37:01;;;;;;;7.80;4.40;;;1.60;99.90;;;;;;5033006;28;20045;-49
2022/01/22 02:39:40;;;;;;;6.03;3.75;;;1.50;99.90;;;;;;5033060;28;20034;-51
2022/01/22 02:42:06;;;;;;;6.90;3.88;;;1.50;99.90;;;;;;5020912;28;20047;-50
2022/01/22 02:44:34;;;;;;;8.82;3.90;;;1.50;99.90;;;;;;5019495;28;20087;-50
2022/01/22 02:47:03;;;;;;;8.57;3.78;;;1.50;99.90;;;;;;5035713;28;20452;-48
2022/01/22 02:49:29;;;;;;;6.10;3.35;;;1.50;99.90;;;;;;5019771;28;20056;-50
2022/01/22 02:51:59;;;;;;;7.28;3.00;;;1.40;99.90;;;;;;4985543;28;20448;-50
2022/01/22 02:54:25;;;;;;;7.88;4.07;;;1.40;99.90;;;;;;5032705;28;20114;-50
2022/01/22 02:56:51;;;;;;;5.93;3.63;;;1.40;99.90;;;;;;5036544;28;20458;-49
2022/01/22 02:59:21;;;;;;;8.43;4.45;;;1.40;99.90;;;;;;5036061;28;20041;-50
2022/01/22 03:01:47;;;;;;;5.85;3.60;;;1.50;99.90;;;;;;5054603;28;20091;-49
2022/01/22 03:04:13;;;;;;;7.10;3.40;;;1.60;99.90;;;;;;5036637;28;20033;-49
2022/01/22 03:06:39;;;;;;;4.68;3.30;;;1.50;99.90;;;;;;5054535;28;20103;-51
2022/01/22 03:09:08;;;;;;;7.07;3.25;;;1.50;99.90;;;;;;5019736;28;20125;-49
2022/01/22 03:11:42;;;;;;;8.77;3.70;;;1.50;99.90;;;;;;5054339;28;20040;-49
2022/01/22 03:19:18;;;;;;;5.70;3.50;;;1.40;99.90;;;;;;5054123;28;20040;-49
2022/01/22 03:21:58;;;;;;;5.18;3.13;;;1.50;99.90;;;;;;4989382;28;20439;-50
2022/01/22 03:27:23;;;;;;;2.92;2.13;;;1.30;99.90;;;;;;5054543;28;20380;-49
2022/01/22 03:29:51;;;;;;;5.30;2.78;;;1.20;99.90;;;;;;5038338;28;20491;-49
2022/01/22 03:32:18;;;;;;;6.15;3.10;;;1.30;99.90;;;;;;5054079;28;20036;-50
2022/01/22 03:34:55;;;;;;;8.68;3.38;;;1.30;99.90;;;;;;5053982;28;20112;-49
2022/01/22 03:37:23;;;;;;;5.60;2.67;;;1.30;99.90;;;;;;5022534;28;20532;-50
2022/01/22 03:39:49;;;;;;;6.78;3.35;;;1.30;99.90;;;;;;5053978;28;20477;-49
2022/01/22 03:42:14;;;;;;;8.15;3.10;;;1.30;99.90;;;;;;5053057;28;20079;-49
2022/01/22 03:44:40;;;;;;;5.43;2.63;;;1.40;99.90;;;;;;5053989;28;20032;-48
2022/01/22 03:47:06;;;;;;;3.78;2.47;;;1.30;99.90;;;;;;5053526;28;20056;-49
2022/01/22 03:49:32;;;;;;;6.05;2.53;;;1.40;99.90;;;;;;5035119;28;20065;-49
2022/01/22 03:51:58;;;;;;;5.07;2.83;;;1.40;99.90;;;;;;5002296;28;20044;-49
2022/01/22 03:54:23;;;;;;;4.25;2.38;;;1.40;99.90;;;;;;5053664;28;20029;-49
2022/01/22 03:56:51;;;;;;;5.45;2.45;;;1.50;99.90;;;;;;5053615;28;20032;-49
2022/01/22 03:59:17;;;;;;;4.55;2.40;;;1.50;99.90;;;;;;5053513;28;20033;-50
2022/01/22 04:04:41;;;;;;;3.22;2.17;;;1.60;99.90;;;;;;5053684;28;20056;-49
2022/01/22 04:09:36;;;;;;;4.20;2.72;;;1.60;99.90;;;;;;5053247;28;20099;-48
2022/01/22 04:12:02;;;;;;;4.50;2.50;;;1.60;99.90;;;;;;5053543;28;20052;-49
2022/01/22 04:14:32;;;;;;;4.30;2.33;;;1.70;99.90;;;;;;5002127;28;20045;-49
2022/01/22 04:25:18;;;;;;;6.30;2.30;;;1.80;99.90;;;;;;4972801;28;20050;-50
2022/01/22 04:27:44;;;;;;;3.53;2.20;;;1.80;99.90;;;;;;4972320;28;20046;-49
2022/01/22 04:30:10;;;;;;;5.57;1.90;;;1.80;99.90;;;;;;4956237;28;21074;-51
2022/01/22 04:32:37;;;;;;;9.18;2.55;;;1.70;99.90;;;;;;4940265;28;20051;-49
2022/01/22 04:35:02;;;;;;;4.45;2.17;;;1.70;99.90;;;;;;4972346;28;20031;-51
2022/01/22 04:37:28;;;;;;;3.47;1.92;;;1.70;99.90;;;;;;4956053;28;20042;-50
2022/01/22 04:39:54;;;;;;;3.70;1.77;;;1.70;99.90;;;;;;4972399;28;20121;-49
2022/01/22 04:42:21;;;;;;;3.03;1.50;;;1.70;99.90;;;;;;4972383;28;20034;-50
2022/01/22 04:44:56;;;;;;;3.30;1.58;;;1.80;99.90;;;;;;4972205;28;20087;-49
2022/01/22 04:47:34;;;;;;;2.78;1.42;;;1.90;99.90;;;;;;4972037;28;20515;-48
2022/01/22 04:54:58;;;;;;;3.55;1.30;;;2.10;99.90;;;;;;4946442;28;20534;-49
2022/01/22 04:55:31;;;;;;;4.18;1.60;;;2.20;99.90;;;;;;4975982;28;20042;-49
2022/01/22 04:57:57;;;;;;;3.72;2.25;;;2.20;99.90;;;;;;5003293;28;20045;-50
2022/01/22 05:00:24;;;;;;;20.10;3.42;;;2.40;99.90;;;;;;5005550;28;20041;-50
2022/01/22 05:02:50;;;;;;;5.22;2.00;;;2.30;99.90;;;;;;5056733;28;20029;-49
2022/01/22 05:05:16;;;;;;;4.80;2.42;;;2.20;99.70;;;;;;5056882;28;20048;-50
2022/01/22 05:07:42;;;;;;;5.53;2.47;;;2.20;99.50;;;;;;5056594;28;20112;-49
2022/01/22 05:10:08;;;;;;;2.90;1.35;;;2.30;99.10;;;;;;5056706;28;20056;-50
2022/01/22 05:12:35;;;;;;;3.40;1.40;;;2.30;98.90;;;;;;5033650;28;20039;-49
2022/01/22 05:15:01;;;;;;;3.40;1.60;;;2.20;98.80;;;;;;5076797;28;20046;-49
2022/01/22 05:17:27;;;;;;;1.98;1.35;;;2.20;98.60;;;;;;5058008;28;20036;-50
2022/01/22 05:20:06;;;;;;;3.38;1.70;;;2.30;98.50;;;;;;5076421;28;20036;-49
2022/01/22 05:25:08;;;;;;;;;;;2.30;98.80;;;;;;5076931;28;20086;-50
2022/01/22 05:38:32;;;;;;;3.97;1.92;;;2.20;98.40;;;;;;5013892;28;20045;-50
2022/01/22 05:40:58;;;;;;;3.15;1.42;;;2.30;98.40;;;;;;5014292;28;20033;-50
2022/01/22 05:43:25;;;;;;;5.55;1.83;;;2.40;97.60;;;;;;5014305;28;20030;-49
2022/01/22 05:45:50;;;;;;;3.63;1.80;;;2.50;97.50;;;;;;5014305;28;20096;-49
2022/01/22 05:48:17;;;;;;;5.28;2.17;;;2.50;97.30;;;;;;5013923;28;20518;-50
2022/01/22 05:50:53;;;;;;;4.45;2.05;;;2.60;97.30;;;;;;5014270;28;20430;-49
2022/01/22 06:01:12;;;;;;;4.20;2.63;;;2.80;97.10;;;;;;5013019;28;20117;-50
2022/01/22 06:03:39;;;;;;;4.25;2.03;;;2.80;97.00;;;;;;4995550;28;20129;-49
2022/01/22 06:06:04;;;;;;;2.97;1.73;;;2.90;97.40;;;;;;5011724;28;20036;-49
2022/01/22 06:08:33;;;;;;;4.68;2.60;;;2.90;97.40;;;;;;5013334;28;20138;-50
2022/01/22 06:11:09;;;;;;;6.82;3.08;;;2.90;96.70;;;;;;5024190;28;20068;-49
2022/01/22 06:13:44;;;;;;;6.43;3.13;;;2.90;96.30;;;;;;5018071;28;20047;-49
2022/01/22 06:16:15;;;;;;;6.15;3.15;;;2.90;96.50;;;;;;5064880;28;20030;-50
2022/01/22 06:18:42;;;;;;;4.43;2.58;;;2.90;96.10;;;;;;5067767;28;20025;-49
2022/01/22 06:21:09;;;;;;;5.10;2.92;;;2.90;95.60;;;;;;5066879;28;20101;-50
2022/01/22 06:23:36;;;;;;;5.70;3.65;;;3.00;95.90;;;;;;5057902;28;20451;-50
2022/01/22 06:26:03;;;;;;;13.38;7.80;;;3.10;95.50;;;;;;5056422;28;20033;-49
2022/01/22 06:28:30;;;;;;;8.52;4.68;;;3.20;95.80;;;;;;5066429;28;20040;-49
2022/01/22 06:30:56;;;;;;;10.18;6.25;;;3.30;95.30;;;;;;5074245;28;20040;-49
2022/01/22 06:33:22;;;;;;;7.53;5.57;;;3.40;95.40;;;;;;5067637;28;20036;-50
2022/01/22 06:35:48;;;;;;;6.50;3.55;;;3.50;95.50;;;;;;5064248;28;20029;-50
2022/01/22 06:38:14;;;;;;;9.90;5.65;;;3.60;95.50;;;;;;5055192;28;20119;-49
2022/01/22 06:43:06;;;;;;;6.72;4.50;;;3.60;94.80;;;;;;5068012;28;20054;-50
2022/01/22 06:45:32;;;;;;;4.53;2.85;;;3.60;95.00;;;;;;5044890;28;20389;-49
2022/01/22 06:47:58;;;;;;;5.60;3.05;;;3.60;94.70;;;;;;5064303;28;20045;-49
2022/01/22 06:50:24;;;;;;;4.88;3.25;;;3.60;94.40;;;;;;5057950;28;20029;-49
2022/01/22 06:52:57;;;;;;;6.45;3.08;;;3.60;94.20;;;;;;5028085;28;20530;-49
2022/01/22 06:55:53;;;;;;;4.65;2.83;;;3.60;94.40;;;;;;5064691;28;20033;-50
2022/01/22 06:58:11;;;;;;;7.35;3.33;;;3.60;95.10;;;;;;5063228;28;20036;-50
2022/01/22 07:00:36;;;;;;;7.03;3.50;;;3.60;94.90;;;;;;5043892;28;20052;-49
2022/01/22 07:03:03;;;;;;;5.05;2.83;;;3.50;94.50;;;;;;5012898;28;20078;-49
2022/01/22 07:05:29;;;;;;;5.38;2.50;;;3.40;94.60;;;;;;5073528;28;20031;-49
2022/01/22 07:07:55;;;;;;;5.70;3.25;;;3.50;93.90;;;;;;5050708;28;20053;-49
2022/01/22 07:10:21;;;;;;;6.75;4.07;;;3.50;94.50;;;;;;5045410;28;20079;-49
2022/01/22 07:12:47;;;;;;;6.72;3.50;;;3.50;94.30;;;;;;5029108;28;20095;-49
2022/01/22 07:15:13;;;;;;;6.82;3.95;;;3.50;94.50;;;;;;5053354;28;20021;-49
2022/01/22 07:17:40;;;;;;;5.00;3.45;;;3.50;93.90;;;;;;5053334;28;20060;-49
2022/01/22 07:20:13;;;;;;;6.00;3.30;;;3.50;93.50;;;;;;5053283;28;20385;-50
2022/01/22 07:22:50;;;;;;;5.07;3.08;;;3.50;94.00;;;;;;5065247;28;20059;-50
2022/01/22 07:25:16;;;;;;;8.05;3.90;;;3.50;93.40;;;;;;5052866;28;20037;-49
2022/01/22 07:27:42;;;;;;;5.85;3.20;;;3.50;93.90;;;;;;5057989;28;20461;-49
2022/01/22 07:30:08;;;;;;;6.07;4.07;;;3.50;94.00;;;;;;5020201;28;20116;-50
2022/01/22 07:32:37;;;;;;;5.40;3.80;;;3.60;93.80;;;;;;5064008;28;20039;-49
2022/01/22 07:35:04;;;;;;;7.03;3.03;;;4.10;94.30;;;;;;5069173;28;20036;-49
2022/01/22 07:37:30;;;;;;;6.63;2.60;;;3.70;94.20;;;;;;5021263;28;20079;-49
2022/01/22 07:39:56;;;;;;;5.75;4.45;;;3.70;94.40;;;;;;5020929;28;20507;-49
2022/01/22 07:42:22;;;;;;;13.07;7.35;;;3.70;94.60;;;;;;5027256;28;20401;-49
2022/01/22 07:44:48;;;;;;;10.05;6.20;;;3.80;94.30;;;;;;5052384;28;20032;-50
2022/01/22 07:47:14;;;;;;;20.55;11.20;;;3.80;94.80;;;;;;5024570;28;20047;-49
2022/01/22 07:49:40;;;;;;;62.67;54.33;;;3.90;94.90;;;;;;5072870;28;20503;-49
2022/01/22 07:52:07;;;;;;;6.25;3.65;;;3.90;95.20;;;;;;5072608;28;20476;-50
2022/01/22 07:54:33;;;;;;;10.35;5.80;;;3.80;95.00;;;;;;5072545;28;20031;-49
2022/01/22 07:56:59;;;;;;;11.32;7.90;;;3.90;95.40;;;;;;5037088;28;20032;-49
2022/01/22 07:59:25;;;;;;;20.17;8.75;;;3.90;95.20;;;;;;5037077;28;20392;-49
2022/01/22 08:01:51;;;;;;;26.58;13.73;;;3.90;95.50;;;;;;5072842;28;20024;-50
2022/01/22 08:04:24;;;;;;;8.05;4.63;;;3.90;95.40;;;;;;5063467;28;20472;-49
2022/01/22 08:06:50;;;;;;;7.05;4.50;;;3.90;95.10;;;;;;5052433;28;20029;-50
2022/01/22 08:09:16;;;;;;;79.43;29.95;;;3.80;94.90;;;;;;5017181;28;20048;-49
2022/01/22 08:11:41;;;;;;;15.25;6.18;;;3.70;95.60;;;;;;5052451;28;20040;-50
2022/01/22 08:14:09;;;;;;;60.97;20.75;;;3.60;95.80;;;;;;5052177;28;20044;-49
2022/01/22 08:16:35;;;;;;;9.23;5.47;;;3.50;95.50;;;;;;5052233;28;20032;-50
2022/01/22 08:19:01;;;;;;;8.25;4.88;;;3.50;95.60;;;;;;5058576;28;20021;-50
2022/01/22 08:21:27;;;;;;;14.02;6.45;;;3.50;95.50;;;;;;5062273;28;20525;-50
2022/01/22 08:23:53;;;;;;;18.50;9.55;;;3.60;95.80;;;;;;5052143;28;20044;-49
2022/01/22 08:26:23;;;;;;;29.48;11.75;;;3.50;95.80;;;;;;5053356;28;20033;-50
2022/01/22 08:28:58;;;;;;;10.73;5.60;;;3.30;96.20;;;;;;5054676;28;20040;-49
2022/01/22 08:36:58;;;;;;;9.55;4.95;;;3.30;96.70;;;;;;4949530;28;20050;-49
2022/01/22 08:39:25;;;;;;;5.57;3.80;;;3.10;97.00;;;;;;4973324;28;20039;-49
2022/01/22 08:41:51;;;;;;;6.40;3.50;;;3.10;98.10;;;;;;4963708;28;20170;-49
2022/01/22 08:44:17;;;;;;;5.05;3.13;;;2.90;99.90;;;;;;4978874;28;20042;-50
2022/01/22 08:46:43;;;;;;;8.48;3.30;;;2.60;99.90;;;;;;4982686;28;20466;-49
2022/01/22 08:49:09;;;;;;;4.22;2.50;;;2.10;99.90;;;;;;4979886;28;20417;-50
2022/01/22 08:51:38;;;;;;;6.65;2.92;;;1.90;99.90;;;;;;4990345;28;20037;-50
2022/01/22 08:54:04;;;;;;;4.97;3.22;;;1.90;99.90;;;;;;4969864;28;20114;-50
2022/01/22 08:56:30;;;;;;;8.73;4.60;;;1.60;99.90;;;;;;4970452;28;20070;-50
2022/01/22 08:58:57;;;;;;;4.97;3.33;;;1.60;99.90;;;;;;4970532;28;20501;-50
2022/01/22 09:01:23;;;;;;;6.75;4.03;;;1.60;99.90;;;;;;4969958;28;20046;-50
2022/01/22 09:03:50;;;;;;;4.38;2.33;;;1.60;99.90;;;;;;4970958;28;20039;-49
2022/01/22 09:06:17;;;;;;;3.35;1.92;;;1.40;99.90;;;;;;4970933;28;20039;-49
2022/01/22 09:08:45;;;;;;;5.97;4.55;;;1.30;99.90;;;;;;5024060;28;20092;-50
2022/01/22 09:11:11;;;;;;;5.18;3.75;;;1.40;99.90;;;;;;5029738;28;20520;-49
2022/01/22 09:13:38;;;;;;;5.28;3.63;;;1.60;99.90;;;;;;5029457;28;20033;-50
2022/01/22 09:16:04;;;;;;;6.13;3.38;;;1.60;99.90;;;;;;5029529;28;20029;-49
2022/01/22 09:18:30;;;;;;;5.30;3.50;;;1.70;99.90;;;;;;5031249;28;20109;-49
2022/01/22 09:21:02;;;;;;;31.20;20.23;;;1.70;99.90;;;;;;5024856;28;20034;-50
2022/01/22 09:23:30;;;;;;;7.90;4.90;;;1.80;99.90;;;;;;4964894;28;20501;-50
2022/01/22 09:25:56;;;;;;;5.93;4.05;;;1.80;99.90;;;;;;5048093;28;20111;-50
2022/01/22 09:28:22;;;;;;;7.25;5.65;;;1.90;99.90;;;;;;5024474;28;20075;-50
2022/01/22 09:30:48;;;;;;;7.55;3.38;;;2.00;99.90;;;;;;5022285;28;20041;-49
2022/01/22 09:33:15;;;;;;;4.35;3.40;;;2.10;99.90;;;;;;5060123;28;20082;-49
2022/01/22 09:35:41;;;;;;;5.35;3.55;;;2.10;99.90;;;;;;5071595;28;20104;-48
2022/01/22 09:38:07;;;;;;;6.00;3.13;;;2.20;99.90;;;;;;5053738;28;20396;-50
2022/01/22 09:40:33;;;;;;;4.88;3.40;;;2.10;99.90;;;;;;5054777;28;20067;-49
2022/01/22 09:42:59;;;;;;;7.90;4.40;;;2.20;99.90;;;;;;5074071;28;20021;-49
2022/01/22 09:45:30;;;;;;;5.47;4.00;;;2.20;99.90;;;;;;5075104;28;20054;-49
2022/01/22 09:47:58;;;;;;;5.63;3.63;;;2.30;99.90;;;;;;5074802;28;20048;-49
2022/01/22 09:50:26;;;;;;;4.75;2.40;;;2.30;99.90;;;;;;5075108;28;20079;-49
2022/01/22 09:52:52;;;;;;;5.22;3.65;;;2.40;99.90;;;;;;5074937;28;20043;-49
2022/01/22 09:55:18;;;;;;;6.13;2.38;;;2.50;99.90;;;;;;5075029;28;20035;-49
2022/01/22 09:57:45;;;;;;;7.38;4.22;;;2.50;99.90;;;;;;5075324;28;20364;-49
2022/01/22 10:00:13;;;;;;;6.00;3.42;;;2.60;99.90;;;;;;5065508;28;20032;-49
2022/01/22 10:02:47;;;;;;;5.97;3.80;;;2.80;99.90;;;;;;4986317;28;20052;-49
2022/01/22 10:05:33;;;;;;;4.53;2.53;;;2.90;99.90;;;;;;5035926;28;20102;-49
2022/01/22 10:08:19;;;;;;;5.60;3.67;;;2.90;99.90;;;;;;5035924;28;20045;-49
2022/01/22 10:10:46;;;;;;;6.13;3.47;;;2.90;99.90;;;;;;5040521;28;20480;-49
2022/01/22 10:13:12;;;;;;;5.15;4.03;;;2.90;99.90;;;;;;5035865;28;20037;-49
2022/01/22 10:15:39;;;;;;;8.32;4.72;;;2.80;99.90;;;;;;5054439;28;20025;-50
2022/01/22 10:18:06;;;;;;;5.05;3.50;;;2.80;99.90;;;;;;5054713;28;20033;-49
2022/01/22 10:20:37;;;;;;;7.32;4.88;;;3.00;99.90;;;;;;5054484;28;20540;-49
2022/01/22 10:23:06;;;;;;;6.90;3.95;;;3.00;99.90;;;;;;5017114;28;20048;-50
2022/01/22 10:25:40;;;;;;;5.38;3.50;;;3.10;99.90;;;;;;5070048;28;20040;-49
2022/01/22 10:28:10;;;;;;;6.95;4.07;;;3.10;99.90;;;;;;5074251;28;20036;-49
2022/01/22 10:30:39;;;;;;;9.95;5.75;;;3.20;99.90;;;;;;5073961;28;20096;-49
2022/01/22 10:33:30;;;;;;;8.15;4.50;;;3.20;99.90;;;;;;5063146;28;20028;-50
2022/01/22 10:36:20;;;;;;;9.38;5.32;;;3.30;99.90;;;;;;5054033;28;20488;-50
2022/01/22 10:38:52;;;;;;;7.15;4.60;;;3.20;99.90;;;;;;5054000;28;20055;-50
2022/01/22 10:41:37;;;;;;;10.05;5.55;;;3.20;99.90;;;;;;5054190;28;20037;-49
2022/01/22 10:44:07;;;;;;;7.88;5.30;;;3.30;99.90;;;;;;5053853;28;20033;-49
2022/01/22 10:47:02;;;;;;;7.93;4.20;;;3.10;99.90;;;;;;5054330;28;20112;-49
2022/01/22 10:49:28;;;;;;;11.48;5.40;;;3.10;99.90;;;;;;5054933;28;20131;-49
2022/01/22 10:52:00;;;;;;;9.77;6.22;;;3.00;99.90;;;;;;5054416;28;20037;-49
2022/01/22 10:54:34;;;;;;;23.07;11.00;;;3.00;99.90;;;;;;5054873;28;20032;-49
2022/01/22 10:57:10;;;;;;;11.40;8.63;;;3.10;99.90;;;;;;5059680;28;20265;-49
2022/01/22 10:59:36;;;;;;;11.40;7.95;;;3.10;99.90;;;;;;5063838;28;20085;-49
2022/01/22 11:02:03;;;;;;;10.02;6.75;;;3.10;99.90;;;;;;5062871;28;20060;-49
2022/01/22 11:04:39;;;;;;;14.70;6.20;;;3.10;99.90;;;;;;5074012;28;20036;-49
2022/01/22 11:07:06;;;;;;;8.57;3.63;;;3.00;99.90;;;;;;5074417;28;20064;-50
2022/01/22 11:09:34;;;;;;;9.18;5.72;;;2.90;99.90;;;;;;5074565;28;20494;-49
2022/01/22 11:12:04;;;;;;;9.55;5.05;;;3.10;99.90;;;;;;5074449;28;20096;-49
2022/01/22 11:14:34;;;;;;;10.38;5.75;;;3.00;99.90;;;;;;5074410;28;20025;-49
2022/01/22 11:17:01;;;;;;;8.82;5.57;;;3.00;99.90;;;;;;5074222;28;20029;-49
2022/01/22 11:19:35;;;;;;;9.48;5.72;;;3.00;99.90;;;;;;5074493;28;20029;-49
2022/01/22 11:22:12;;;;;;;9.77;4.85;;;2.80;99.90;;;;;;5072465;28;20029;-49
2022/01/22 11:24:44;;;;;;;9.32;5.85;;;2.80;99.90;;;;;;5074237;28;20099;-49
2022/01/22 11:27:17;;;;;;;23.40;13.63;;;2.80;99.90;;;;;;5074278;28;20028;-49
2022/01/22 11:29:57;;;;;;;7.47;4.97;;;2.80;99.90;;;;;;5074607;28;20473;-49
2022/01/22 11:32:44;;;;;;;12.07;8.23;;;2.50;99.90;;;;;;5074041;28;20043;-48
2022/01/22 11:35:12;;;;;;;11.45;9.05;;;2.60;99.90;;;;;;5074024;28;20020;-49
2022/01/22 11:37:51;;;;;;;5.32;3.22;;;2.60;99.90;;;;;;5038798;28;20032;-49
2022/01/22 11:40:23;;;;;;;8.30;5.50;;;2.20;99.90;;;;;;5073959;28;20063;-49
2022/01/22 11:43:09;;;;;;;10.95;6.80;;;2.40;99.90;;;;;;5074103;28;20028;-49
2022/01/22 11:45:52;;;;;;;9.55;6.95;;;2.50;99.90;;;;;;5073957;28;20039;-50
2022/01/22 11:48:37;;;;;;;9.32;5.07;;;2.70;99.90;;;;;;5073577;28;20055;-49
2022/01/22 11:51:25;;;;;;;9.15;5.32;;;2.50;99.90;;;;;;5073609;28;20044;-49
2022/01/22 11:53:56;;;;;;;10.07;6.72;;;;;;;;;;5073807;28;20047;-49
2022/01/22 11:56:26;;;;;;;13.70;6.93;;;;;;;;;;5055235;28;20064;-49
2022/01/22 11:58:59;;;;;;;8.25;5.53;;;;;;;;;;5073616;28;20059;-49
2022/01/22 12:01:41;;;;;;;6.90;4.18;;;;;;;;;;5073687;28;20064;-49
2022/01/22 12:04:14;;;;;;;9.15;5.47;;;;;;;;;;5066237;28;20039;-49
2022/01/22 12:07:00;;;;;;;10.35;5.30;;;;;;;;;;5061887;28;20063;-49
2022/01/22 12:09:30;;;;;;;7.03;4.95;;;;;;;;;;5062407;28;20496;-50
2022/01/22 12:14:55;;;;;;;8.50;5.55;;;2.50;99.90;;;;;;5063200;28;20067;-49
2022/01/22 12:17:47;;;;;;;5.18;3.65;;;2.60;99.90;;;;;;5050970;28;20076;-49
2022/01/22 12:23:10;;;;;;;5.28;3.95;;;2.30;99.90;;;;;;5053054;28;20043;-49
2022/01/22 12:25:36;;;;;;;6.30;3.75;;;2.30;99.90;;;;;;5055777;28;20036;-49
2022/01/22 12:28:05;;;;;;;8.30;5.65;;;2.20;99.90;;;;;;5053382;28;20416;-49
2022/01/22 12:30:36;;;;;;;6.20;3.53;;;2.40;99.90;;;;;;5062603;28;20656;-49
2022/01/22 12:33:02;;;;;;;7.85;4.88;;;2.30;99.90;;;;;;5069071;28;20392;-49
2022/01/22 12:35:38;;;;;;;7.28;3.90;;;2.30;99.90;;;;;;5073496;28;20103;-49
2022/01/22 12:38:51;;;;;;;7.32;4.50;;;2.10;99.90;;;;;;5057564;28;20100;-49
2022/01/22 12:41:50;;;;;;;4.07;2.90;;;2.30;99.90;;;;;;4972583;28;20210;-48
2022/01/22 12:46:49;;;;;;;7.57;4.60;;;2.30;99.90;;;;;;4971577;28;20093;-49
2022/01/22 12:49:16;;;;;;;6.68;4.40;;;2.40;99.90;;;;;;4971951;28;20050;-49
2022/01/22 12:51:42;;;;;;;5.90;4.03;;;2.40;99.90;;;;;;4982351;28;20047;-49
2022/01/22 12:54:08;;;;;;;5.28;4.05;;;2.20;99.90;;;;;;4956708;28;20594;-49
2022/01/22 12:56:49;;;;;;;6.95;2.95;;;2.30;99.90;;;;;;4981009;28;20031;-49
2022/01/22 12:59:15;;;;;;;6.57;4.32;;;2.30;99.90;;;;;;4974499;28;20142;-49
2022/01/22 13:01:46;;;;;;;8.55;5.50;;;2.60;99.90;;;;;;4980299;28;20064;-49
2022/01/22 13:04:12;;;;;;;8.68;5.28;;;2.70;99.90;;;;;;4965781;28;20545;-49
2022/01/22 13:06:50;;;;;;;6.68;5.25;;;2.70;99.90;;;;;;4982236;28;20479;-49
2022/01/22 13:09:16;;;;;;;6.85;4.80;;;2.90;99.90;;;;;;4974141;28;20050;-48
2022/01/22 13:11:50;;;;;;;6.95;4.47;;;3.00;99.90;;;;;;4940025;28;20035;-48
2022/01/22 13:14:30;;;;;;;10.70;6.18;;;3.20;99.90;;;;;;4976521;28;20034;-50
2022/01/22 13:16:56;;;;;;;11.77;4.40;;;3.20;99.90;;;;;;5035066;28;20060;-50
2022/01/22 13:19:28;;;;;;;8.52;5.85;;;3.20;99.90;;;;;;5067002;28;20028;-51
2022/01/22 13:22:00;;;;;;;7.38;5.63;;;3.30;99.90;;;;;;5065919;28;20025;-49
2022/01/22 13:24:27;;;;;;;;;;;3.30;99.90;;;;;;5048897;28;20028;-49
2022/01/22 13:29:38;;;;;;;8.87;5.90;;;3.50;99.90;;;;;;5026592;28;20546;-49
2022/01/22 13:32:08;;;;;;;6.07;5.00;;;3.50;99.90;;;;;;5076420;28;20051;-52
2022/01/22 13:38:11;;;;;;;5.50;4.20;;;;;;;;;;5076297;28;20029;-49
2022/01/22 13:40:29;;;;;;;4.82;2.88;;;;;;;;;;5076279;28;20040;-50
2022/01/22 13:48:32;;;;;;;6.00;3.88;;;3.10;99.90;;;;;;5076025;28;20067;-49
2022/01/22 13:51:00;;;;;;;6.07;3.55;;;3.00;99.90;;;;;;5073108;28;20017;-49
2022/01/22 13:53:26;;;;;;;5.03;3.83;;;2.90;99.90;;;;;;5076071;28;20036;-49
2022/01/22 13:56:12;;;;;;;8.30;5.63;;;3.00;99.90;;;;;;5076071;28;20050;-49
2022/01/22 13:58:38;;;;;;;3.70;2.60;;;3.00;99.90;;;;;;5041440;28;20063;-49
2022/01/22 14:01:32;;;;;;;4.45;3.03;;;2.80;99.90;;;;;;5040859;28;20029;-49
2022/01/22 14:04:12;;;;;;;24.58;15.90;;;3.00;99.90;;;;;;5075903;28;20024;-49
2022/01/22 14:06:41;;;;;;;29.20;16.10;;;3.00;99.90;;;;;;5075925;28;20361;-49
2022/01/22 14:09:23;;;;;;;35.58;16.35;;;3.00;99.90;;;;;;5075739;28;20072;-49
2022/01/22 14:12:11;;;;;;;56.40;24.23;;;3.00;99.90;;;;;;5075844;28;20039;-49
2022/01/22 14:14:59;;;;;;;26.23;12.70;;;3.00;99.90;;;;;;4978717;28;20137;-49
2022/01/22 14:17:31;;;;;;;44.15;17.10;;;2.80;99.90;;;;;;4996816;28;20443;-49
2022/01/22 14:20:04;;;;;;;58.72;22.55;;;3.00;99.90;;;;;;5006813;28;20116;-49
2022/01/22 14:22:55;;;;;;;11.07;5.07;;;3.20;99.90;;;;;;4984540;28;20033;-49
2022/01/22 14:25:21;;;;;;;17.23;9.90;;;3.40;99.90;;;;;;5004014;28;20034;-49
2022/01/22 14:27:59;;;;;;;33.92;13.32;;;3.40;99.90;;;;;;5002387;28;20065;-49
2022/01/22 14:30:36;;;;;;;18.88;9.88;;;3.30;99.90;;;;;;4953426;28;20498;-49
2022/01/22 14:33:03;;;;;;;30.83;12.25;;;3.20;99.90;;;;;;5002109;28;20423;-49
2022/01/22 14:35:29;;;;;;;59.70;23.92;;;3.20;99.90;;;;;;4970984;28;20074;-49
2022/01/22 14:37:57;;;;;;;6.72;4.90;;;3.20;99.90;;;;;;5003342;28;20046;-49
2022/01/22 14:45:58;;;;;;;51.80;21.08;;;3.20;99.90;;;;;;5052206;28;20043;-49
2022/01/22 14:48:25;;;;;;;;;;;3.30;99.90;;;;;;5073285;28;20133;-49
2022/01/22 14:50:51;;;;;;;20.85;9.38;;;3.30;99.90;;;;;;5055168;28;19905;-49
2022/01/22 14:53:18;;;;;;;23.65;12.73;;;3.20;99.90;;;;;;5054846;28;20048;-49
2022/01/22 14:55:52;;;;;;;47.22;20.77;;;3.20;99.90;;;;;;5001898;28;20090;-49
2022/01/22 14:58:18;;;;;;;33.58;17.23;;;3.20;99.90;;;;;;5054173;28;20103;-49
2022/01/22 15:00:44;;;;;;;25.90;11.30;;;3.30;99.90;;;;;;4985854;28;20048;-49
2022/01/22 15:03:10;;;;;;;34.80;15.73;;;3.20;99.90;;;;;;5055052;28;20029;-49
2022/01/22 15:05:37;;;;;;;36.60;18.95;;;3.10;99.90;;;;;;5063164;28;20032;-49